createdAt,value
2022-12-05T00:01:27.734Z,6.57
2022-12-05T00:03:56.226Z,6.77
2022-12-05T00:06:23.834Z,5.37
2022-12-05T00:08:50.985Z,6.10
2022-12-05T00:11:23.763Z,6.30
2022-12-05T00:13:52.022Z,5.53
2022-12-05T00:16:21.005Z,5.37
2022-12-05T00:18:48.325Z,5.70
2022-12-05T00:21:17.609Z,4.83
2022-12-05T00:23:45.190Z,5.03
2022-12-05T00:26:12.543Z,5.40
2022-12-05T00:28:40.080Z,5.57
2022-12-05T00:31:09.190Z,6.00
2022-12-05T00:33:36.310Z,6.03
2022-12-05T00:36:04.386Z,5.33
2022-12-05T00:38:31.528Z,6.50
2022-12-05T00:41:06.218Z,6.07
2022-12-05T00:43:33.591Z,6.27
2022-12-05T00:46:12.553Z,6.37
2022-12-05T00:48:39.793Z,6.20
2022-12-05T00:51:12.231Z,5.83
2022-12-05T00:53:39.483Z,5.70
2022-12-05T00:56:17.988Z,5.53
2022-12-05T00:58:45.251Z,5.97
2022-12-05T01:01:18.285Z,6.00
2022-12-05T01:03:45.643Z,6.03
2022-12-05T01:06:13.369Z,5.53
2022-12-05T01:08:40.704Z,5.80
2022-12-05T01:11:08.505Z,6.10
2022-12-05T01:13:35.681Z,6.00
2022-12-05T01:16:03.443Z,6.00
2022-12-05T01:18:30.672Z,5.07
2022-12-05T01:20:58.035Z,6.10
2022-12-05T01:23:25.139Z,6.00
2022-12-05T01:25:52.700Z,5.17
2022-12-05T01:28:19.892Z,6.43
2022-12-05T01:30:48.064Z,5.60
2022-12-05T01:33:15.304Z,6.57
2022-12-05T01:35:42.653Z,6.03
2022-12-05T01:38:11.267Z,5.53
2022-12-05T01:40:38.535Z,5.70
2022-12-05T01:43:10.951Z,5.20
2022-12-05T01:45:40.331Z,5.33
2022-12-05T01:48:20.118Z,5.03
2022-12-05T01:50:47.897Z,5.27
2022-12-05T01:53:15.168Z,5.67
2022-12-05T01:55:42.154Z,5.20
2022-12-05T01:58:09.288Z,5.10
2022-12-05T02:00:36.510Z,5.33
2022-12-05T02:03:06.791Z,4.47
2022-12-05T02:05:35.599Z,4.60
2022-12-05T02:08:08.052Z,4.57
2022-12-05T02:10:47.271Z,4.33
2022-12-05T02:13:57.898Z,4.77
2022-12-05T02:16:54.990Z,4.37
2022-12-05T02:19:49.294Z,4.30
2022-12-05T02:22:22.504Z,5.13
2022-12-05T02:25:13.942Z,4.93
2022-12-05T02:28:18.554Z,5.20
2022-12-05T02:30:51.656Z,5.67
2022-12-05T02:33:22.905Z,5.23
2022-12-05T02:36:02.048Z,6.37
2022-12-05T02:38:37.914Z,5.70
2022-12-05T02:41:14.989Z,4.80
2022-12-05T02:43:48.301Z,5.40
2022-12-05T02:46:23.822Z,4.73
2022-12-05T02:48:53.541Z,5.47
2022-12-05T02:51:21.644Z,4.83
2022-12-05T02:53:49.511Z,5.07
2022-12-05T02:56:16.740Z,5.20
2022-12-05T02:58:51.583Z,5.40
2022-12-05T03:01:20.382Z,5.50
2022-12-05T03:03:48.185Z,5.73
2022-12-05T03:06:20.534Z,4.73
2022-12-05T03:09:02.146Z,5.10
2022-12-05T03:11:35.278Z,4.77
2022-12-05T03:14:03.384Z,5.37
2022-12-05T03:16:43.978Z,4.30
2022-12-05T03:19:13.492Z,4.83
2022-12-05T03:21:47.977Z,4.47
2022-12-05T03:24:15.556Z,4.23
2022-12-05T03:26:56.448Z,4.77
2022-12-05T03:29:26.485Z,4.97
2022-12-05T03:31:59.157Z,4.77
2022-12-05T03:34:37.550Z,6.10
2022-12-05T03:37:07.627Z,5.80
2022-12-05T03:39:35.434Z,5.70
2022-12-05T03:42:13.952Z,6.77
2022-12-05T03:44:54.507Z,6.30
2022-12-05T03:47:44.726Z,6.90
2022-12-05T03:50:20.615Z,6.80
2022-12-05T03:53:18.507Z,6.57
2022-12-05T03:55:40.341Z,7.83
2022-12-05T03:58:20.862Z,8.40
2022-12-05T04:00:48.097Z,9.97
2022-12-05T04:03:23.455Z,8.60
2022-12-05T04:05:55.378Z,9.30
2022-12-05T04:08:26.703Z,8.80
2022-12-05T04:10:55.143Z,8.73
2022-12-05T04:13:31.385Z,9.63
2022-12-05T04:16:44.245Z,10.37
2022-12-05T04:19:23.720Z,8.47
2022-12-05T04:21:52.728Z,9.57
2022-12-05T04:24:42.590Z,8.30
2022-12-05T04:27:27.600Z,9.57
2022-12-05T04:30:18.126Z,9.50
2022-12-05T04:32:54.056Z,9.10
2022-12-05T04:35:27.964Z,9.67
2022-12-05T04:37:58.815Z,9.10
2022-12-05T04:40:29.754Z,10.33
2022-12-05T04:42:57.012Z,9.37
2022-12-05T04:45:24.557Z,9.70
2022-12-05T04:47:55.273Z,10.03
2022-12-05T04:50:22.504Z,10.90
2022-12-05T04:52:50.831Z,11.17
2022-12-05T04:55:26.164Z,11.33
2022-12-05T04:58:12.877Z,9.47
2022-12-05T05:00:52.374Z,9.93
2022-12-05T05:03:52.074Z,9.83
2022-12-05T05:06:19.517Z,11.83
2022-12-05T05:08:51.571Z,10.27
2022-12-05T05:11:29.218Z,10.87
2022-12-05T05:13:56.347Z,9.30
2022-12-05T05:16:28.303Z,10.93
2022-12-05T05:18:55.704Z,12.77
2022-12-05T05:21:31.699Z,11.10
2022-12-05T05:23:58.889Z,12.47
2022-12-05T05:26:26.149Z,11.67
2022-12-05T05:28:53.392Z,12.80
2022-12-05T05:31:20.836Z,12.37
2022-12-05T05:33:52.234Z,11.00
2022-12-05T05:36:19.475Z,11.87
2022-12-05T05:38:48.163Z,12.03
2022-12-05T05:41:28.999Z,11.97
2022-12-05T05:43:56.623Z,10.77
2022-12-05T05:46:25.448Z,10.67
2022-12-05T05:48:52.903Z,8.97
2022-12-05T05:51:20.527Z,10.47
2022-12-05T05:53:47.759Z,9.43
2022-12-05T05:56:21.247Z,9.17
2022-12-05T05:58:49.439Z,9.80
2022-12-05T06:01:19.096Z,9.37
2022-12-05T06:03:46.382Z,8.87
2022-12-05T06:06:14.256Z,8.60
2022-12-05T06:08:42.912Z,9.27
2022-12-05T06:11:15.462Z,9.77
2022-12-05T06:13:44.066Z,9.33
2022-12-05T06:16:13.456Z,8.53
2022-12-05T06:18:40.935Z,9.57
2022-12-05T06:21:15.970Z,8.10
2022-12-05T06:23:43.679Z,9.43
2022-12-05T06:26:12.443Z,9.77
2022-12-05T06:28:40.042Z,9.80
2022-12-05T06:31:09.079Z,9.93
2022-12-05T06:33:36.299Z,11.60
2022-12-05T06:36:08.524Z,9.20
2022-12-05T06:38:40.408Z,10.33
2022-12-05T06:41:10.830Z,10.67
2022-12-05T06:43:38.007Z,10.30
2022-12-05T06:46:08.884Z,9.40
2022-12-05T06:48:36.104Z,10.57
2022-12-05T06:51:03.403Z,11.83
2022-12-05T06:53:30.595Z,11.90
2022-12-05T06:56:05.040Z,10.07
2022-12-05T06:58:32.216Z,11.13
2022-12-05T07:01:18.107Z,14.03
2022-12-05T07:03:45.251Z,14.00
2022-12-05T07:06:12.364Z,14.80
2022-12-05T07:08:39.585Z,13.07
2022-12-05T07:11:06.657Z,14.70
2022-12-05T07:13:33.870Z,13.37
2022-12-05T07:16:01.115Z,15.30
2022-12-05T07:18:28.373Z,17.07
2022-12-05T07:21:17.335Z,16.90
2022-12-05T07:23:45.295Z,15.80
2022-12-05T07:26:14.213Z,19.03
2022-12-05T07:28:41.404Z,17.77
2022-12-05T07:31:10.371Z,18.80
2022-12-05T07:33:37.603Z,21.30
2022-12-05T07:36:09.910Z,18.73
2022-12-05T07:38:37.649Z,19.50
2022-12-05T07:41:13.785Z,20.47
2022-12-05T07:43:42.099Z,18.77
2022-12-05T07:46:12.246Z,18.40
2022-12-05T07:48:39.761Z,18.77
2022-12-05T07:51:07.656Z,16.63
2022-12-05T07:53:34.802Z,16.60
2022-12-05T07:56:03.380Z,16.13
2022-12-05T07:58:30.871Z,16.30
2022-12-05T08:00:59.028Z,16.50
2022-12-05T08:03:26.153Z,16.63
2022-12-05T08:05:53.414Z,13.00
2022-12-05T08:08:20.621Z,15.23
2022-12-05T08:10:47.748Z,14.47
2022-12-05T08:13:14.886Z,15.40
2022-12-05T08:15:42.004Z,17.17
2022-12-05T08:18:09.170Z,16.63
2022-12-05T08:20:36.300Z,15.67
2022-12-05T08:23:03.363Z,15.33
2022-12-05T08:25:30.951Z,13.60
2022-12-05T08:27:58.095Z,14.87
2022-12-05T08:30:25.273Z,13.87
2022-12-05T08:32:52.940Z,13.70
2022-12-05T08:35:20.134Z,13.87
2022-12-05T08:37:47.221Z,16.50
2022-12-05T08:40:14.433Z,14.50
2022-12-05T08:42:41.804Z,12.73
2022-12-05T08:45:09.339Z,15.03
2022-12-05T08:47:36.701Z,14.60
2022-12-05T08:50:04.260Z,14.10
2022-12-05T08:52:31.334Z,12.67
2022-12-05T08:54:58.550Z,13.87
2022-12-05T08:57:25.979Z,13.63
2022-12-05T08:59:53.132Z,13.00
2022-12-05T09:02:20.511Z,14.00
2022-12-05T09:04:54.095Z,15.00
2022-12-05T09:07:21.484Z,13.37
2022-12-05T09:09:48.592Z,12.77
2022-12-05T09:12:15.857Z,13.40
2022-12-05T09:14:42.930Z,13.00
2022-12-05T09:17:10.025Z,14.57
2022-12-05T09:19:37.223Z,12.37
2022-12-05T09:22:05.341Z,14.57
2022-12-05T09:24:32.533Z,15.33
2022-12-05T09:26:59.756Z,14.40
2022-12-05T09:29:29.671Z,11.80
2022-12-05T09:31:56.773Z,12.77
2022-12-05T09:34:26.253Z,12.57
2022-12-05T09:37:05.628Z,13.10
2022-12-05T09:39:33.942Z,12.40
2022-12-05T09:42:18.699Z,11.93
2022-12-05T09:45:06.089Z,12.73
2022-12-05T09:47:56.628Z,13.10
2022-12-05T09:50:35.598Z,13.07
2022-12-05T09:53:33.494Z,11.87
2022-12-05T09:56:09.733Z,11.60
2022-12-05T09:58:47.343Z,12.40
2022-12-05T10:01:17.544Z,13.37
2022-12-05T10:04:09.825Z,13.30
2022-12-05T10:07:07.525Z,13.03
2022-12-05T10:09:40.544Z,13.17
2022-12-05T10:12:14.853Z,13.40
2022-12-05T10:15:13.276Z,13.10
2022-12-05T10:17:42.886Z,12.33
2022-12-05T10:20:18.896Z,12.87
2022-12-05T10:23:41.271Z,13.67
2022-12-05T10:26:05.165Z,12.37
2022-12-05T10:28:35.207Z,12.87
2022-12-05T10:31:05.346Z,13.30
2022-12-05T10:33:37.547Z,14.90
2022-12-05T10:36:10.572Z,15.80
2022-12-05T10:38:37.828Z,14.30
2022-12-05T10:41:07.740Z,16.23
2022-12-05T10:43:35.598Z,15.60
2022-12-05T10:46:02.863Z,14.00
2022-12-05T10:48:31.795Z,14.17
2022-12-05T10:50:59.996Z,13.87
2022-12-05T10:53:33.705Z,14.13
2022-12-05T10:56:29.299Z,13.87
2022-12-05T10:58:57.851Z,16.07
2022-12-05T11:01:25.719Z,12.47
2022-12-05T11:04:20.747Z,13.97
2022-12-05T11:07:32.459Z,13.57
2022-12-05T11:10:01.026Z,15.97
2022-12-05T11:12:36.035Z,15.03
2022-12-05T11:15:22.043Z,14.97
2022-12-05T11:17:49.564Z,14.30
2022-12-05T11:20:19.743Z,14.63
2022-12-05T11:22:48.926Z,16.30
2022-12-05T11:25:35.618Z,14.57
2022-12-05T11:28:24.234Z,15.00
2022-12-05T11:31:02.473Z,13.23
2022-12-05T11:33:31.560Z,15.70
2022-12-05T11:36:06.178Z,14.07
2022-12-05T11:38:34.849Z,12.40
2022-12-05T11:41:22.201Z,12.63
2022-12-05T11:43:58.161Z,12.37
2022-12-05T11:46:40.764Z,12.37
2022-12-05T11:49:49.444Z,12.93
2022-12-05T11:52:30.199Z,12.00
2022-12-05T11:55:07.143Z,10.87
2022-12-05T11:57:52.558Z,12.27
2022-12-05T12:00:46.526Z,11.37
2022-12-05T12:03:32.600Z,10.80
2022-12-05T12:06:21.586Z,10.93
2022-12-05T12:09:22.353Z,9.67
2022-12-05T12:11:52.493Z,10.00
2022-12-05T12:14:23.821Z,10.93
2022-12-05T12:17:09.963Z,11.80
2022-12-05T12:20:03.493Z,9.87
2022-12-05T12:23:06.102Z,9.87
2022-12-05T12:25:46.718Z,9.10
2022-12-05T12:28:35.603Z,9.33
2022-12-05T12:31:17.927Z,10.07
2022-12-05T12:34:19.515Z,9.00
2022-12-05T12:36:50.778Z,8.13
2022-12-05T12:39:50.466Z,9.47
2022-12-05T12:42:20.919Z,8.30
2022-12-05T12:44:52.712Z,8.53
2022-12-05T12:47:32.315Z,8.10
2022-12-05T12:50:25.580Z,7.17
2022-12-05T12:53:25.932Z,7.87
2022-12-05T12:56:10.017Z,9.30
2022-12-05T12:58:56.625Z,9.13
2022-12-05T13:01:38.937Z,8.17
2022-12-05T13:04:17.985Z,7.30
2022-12-05T13:06:50.933Z,7.77
2022-12-05T13:09:47.394Z,8.13
2022-12-05T13:12:25.091Z,7.90
2022-12-05T13:15:12.005Z,7.73
2022-12-05T13:17:39.676Z,7.27
2022-12-05T13:20:07.644Z,8.87
2022-12-05T13:22:34.772Z,8.33
2022-12-05T13:25:01.994Z,6.97
2022-12-05T13:27:29.184Z,7.07
2022-12-05T13:30:01.711Z,7.30
2022-12-05T13:32:29.315Z,7.10
2022-12-05T13:34:58.316Z,7.20
2022-12-05T13:37:45.524Z,6.40
2022-12-05T13:40:47.161Z,6.40
2022-12-05T13:43:19.434Z,5.37
2022-12-05T13:46:03.453Z,5.80
2022-12-05T13:48:31.689Z,5.80
2022-12-05T13:51:30.999Z,5.00
2022-12-05T13:54:04.842Z,5.10
2022-12-05T13:56:55.493Z,6.47
2022-12-05T14:00:00.844Z,5.87
2022-12-05T14:02:46.692Z,6.17
2022-12-05T14:05:19.476Z,6.10
2022-12-05T14:07:47.357Z,5.70
2022-12-05T14:10:21.352Z,6.20
2022-12-05T14:12:55.497Z,6.37
2022-12-05T14:15:43.764Z,6.00
2022-12-05T14:18:31.903Z,5.43
2022-12-05T14:21:02.509Z,5.10
2022-12-05T14:23:52.473Z,5.70
2022-12-05T14:26:33.342Z,5.57
2022-12-05T14:29:11.808Z,6.10
2022-12-05T14:31:53.886Z,6.03
2022-12-05T14:34:25.335Z,5.20
2022-12-05T14:37:07.812Z,5.47
2022-12-05T14:39:49.143Z,5.33
2022-12-05T14:42:27.184Z,4.63
2022-12-05T14:44:57.512Z,5.00
2022-12-05T14:47:31.897Z,4.73
2022-12-05T14:50:17.943Z,5.10
2022-12-05T14:52:45.653Z,4.73
2022-12-05T14:55:18.641Z,4.83
2022-12-05T14:57:48.779Z,8.87
2022-12-05T15:00:23.131Z,8.07
2022-12-05T15:02:52.149Z,6.37
2022-12-05T15:05:29.957Z,5.43
2022-12-05T15:07:57.314Z,5.47
2022-12-05T15:10:25.804Z,7.37
2022-12-05T15:13:00.309Z,6.43
2022-12-05T15:15:59.218Z,7.13
2022-12-05T15:18:39.207Z,6.43
2022-12-05T15:21:34.543Z,6.33
2022-12-05T15:24:06.377Z,5.40
2022-12-05T15:26:48.602Z,5.60
2022-12-05T15:29:29.227Z,5.77
2022-12-05T15:31:57.284Z,5.23
2022-12-05T15:34:30.218Z,5.40
2022-12-05T15:36:58.617Z,5.17
2022-12-05T15:39:26.611Z,4.93
2022-12-05T15:41:54.037Z,4.70
2022-12-05T15:44:26.865Z,4.73
2022-12-05T15:46:55.638Z,5.70
2022-12-05T15:49:25.855Z,5.93
2022-12-05T15:51:55.900Z,6.47
2022-12-05T15:54:30.394Z,5.97
2022-12-05T15:57:19.588Z,5.37
2022-12-05T15:59:50.200Z,4.57
2022-12-05T16:02:36.787Z,4.07
2022-12-05T16:05:04.175Z,6.13
2022-12-05T16:07:31.507Z,5.90
2022-12-05T16:09:59.786Z,5.97
2022-12-05T16:12:40.201Z,6.53
2022-12-05T16:15:28.039Z,5.70
2022-12-05T16:17:56.243Z,5.93
2022-12-05T16:20:25.743Z,7.10
2022-12-05T16:22:58.824Z,6.27
2022-12-05T16:25:31.034Z,4.70
2022-12-05T16:28:00.041Z,5.90
2022-12-05T16:30:28.110Z,6.20
2022-12-05T16:33:06.564Z,6.90
2022-12-05T16:35:40.202Z,6.20
2022-12-05T16:38:16.973Z,6.07
2022-12-05T16:40:46.991Z,5.57
2022-12-05T16:43:37.293Z,5.20
2022-12-05T16:46:13.629Z,19.83
2022-12-05T16:48:41.908Z,55.17
2022-12-05T16:51:18.875Z,19.53
2022-12-05T16:53:56.134Z,8.87
2022-12-05T16:56:41.915Z,8.30
2022-12-05T16:59:20.760Z,8.33
2022-12-05T17:01:47.993Z,6.17
2022-12-05T17:04:15.278Z,5.80
2022-12-05T17:06:42.846Z,6.73
2022-12-05T17:09:10.068Z,4.90
2022-12-05T17:11:37.927Z,6.53
2022-12-05T17:14:05.207Z,5.97
2022-12-05T17:16:32.486Z,6.07
2022-12-05T17:18:59.844Z,11.50
2022-12-05T17:21:29.563Z,5.43
2022-12-05T17:23:56.690Z,6.70
2022-12-05T17:26:23.880Z,6.40
2022-12-05T17:28:51.286Z,6.27
2022-12-05T17:31:20.347Z,5.97
2022-12-05T17:33:47.932Z,5.80
2022-12-05T17:36:15.930Z,8.30
2022-12-05T17:38:43.430Z,7.03
2022-12-05T17:41:23.498Z,6.90
2022-12-05T17:43:51.590Z,5.83
2022-12-05T17:46:21.111Z,5.23
2022-12-05T17:48:48.610Z,6.20
2022-12-05T17:51:15.935Z,7.03
2022-12-05T17:53:44.639Z,5.80
2022-12-05T17:56:12.494Z,6.30
2022-12-05T17:58:39.810Z,6.07
2022-12-05T18:01:07.181Z,5.93
2022-12-05T18:03:34.667Z,5.83
2022-12-05T18:06:04.027Z,6.17
2022-12-05T18:08:31.243Z,7.10
2022-12-05T18:10:58.583Z,6.07
2022-12-05T18:13:26.157Z,5.90
2022-12-05T18:15:57.311Z,5.70
2022-12-05T18:18:27.486Z,6.97
2022-12-05T18:20:54.536Z,5.30
2022-12-05T18:23:22.041Z,5.13
2022-12-05T18:26:00.553Z,4.87
2022-12-05T18:28:27.881Z,4.87
2022-12-05T18:31:08.815Z,5.50
2022-12-05T18:33:36.093Z,5.30
2022-12-05T18:36:08.101Z,4.60
2022-12-05T18:38:35.871Z,4.53
2022-12-05T18:41:03.989Z,4.13
2022-12-05T18:43:32.135Z,3.53
2022-12-05T18:46:00.700Z,3.77
2022-12-05T18:48:39.454Z,4.27
2022-12-05T18:51:13.490Z,3.17
2022-12-05T18:53:40.991Z,3.30
2022-12-05T18:56:25.901Z,3.40
2022-12-05T18:58:58.074Z,4.77
2022-12-05T19:01:25.847Z,3.80
2022-12-05T19:03:53.089Z,4.13
2022-12-05T19:06:22.035Z,4.53
2022-12-05T19:08:49.631Z,4.93
2022-12-05T19:11:17.548Z,6.13
2022-12-05T19:13:45.032Z,6.53
2022-12-05T19:16:18.795Z,5.70
2022-12-05T19:18:46.905Z,14.73
2022-12-05T19:21:14.456Z,7.30
2022-12-05T19:23:41.731Z,20.43
2022-12-05T19:26:09.554Z,16.93
2022-12-05T19:28:37.364Z,10.60
2022-12-05T19:31:09.052Z,4.83
2022-12-05T19:33:41.193Z,3.87
2022-12-05T19:36:14.039Z,3.53
2022-12-05T19:38:42.294Z,3.07
2022-12-05T19:41:11.072Z,3.00
2022-12-05T19:43:38.628Z,3.47
2022-12-05T19:46:11.232Z,2.50
2022-12-05T19:48:38.612Z,2.23
2022-12-05T19:51:05.954Z,3.10
2022-12-05T19:53:35.665Z,43.90
2022-12-05T19:56:04.324Z,4.57
2022-12-05T19:58:32.247Z,4.43
2022-12-05T20:01:28.883Z,3.47
2022-12-05T20:04:06.877Z,2.67
2022-12-05T20:06:36.861Z,2.10
2022-12-05T20:09:04.341Z,1.97
2022-12-05T20:11:31.553Z,1.87
2022-12-05T20:14:00.083Z,2.10
2022-12-05T20:16:27.679Z,1.63
2022-12-05T20:18:59.054Z,2.57
2022-12-05T20:21:27.909Z,2.50
2022-12-05T20:23:55.245Z,3.10
2022-12-05T20:26:29.892Z,2.70
2022-12-05T20:29:00.684Z,1.50
2022-12-05T20:31:33.028Z,1.40
2022-12-05T20:34:00.407Z,1.20
2022-12-05T20:36:29.791Z,1.40
2022-12-05T20:39:07.110Z,0.77
2022-12-05T20:41:34.572Z,0.60
2022-12-05T20:44:03.129Z,0.70
2022-12-05T20:46:31.953Z,0.70
2022-12-05T20:48:59.413Z,0.47
2022-12-05T20:51:31.281Z,0.53
2022-12-05T20:53:59.282Z,1.00
2022-12-05T20:56:28.636Z,0.80
2022-12-05T20:58:57.869Z,0.70
2022-12-05T21:01:25.807Z,0.40
2022-12-05T21:03:53.152Z,0.53
2022-12-05T21:06:23.380Z,0.57
2022-12-05T21:08:51.463Z,0.50
2022-12-05T21:11:18.758Z,0.50
2022-12-05T21:13:46.349Z,0.77
2022-12-05T21:16:16.885Z,0.53
2022-12-05T21:18:44.514Z,0.70
2022-12-05T21:21:14.763Z,0.50
2022-12-05T21:23:45.899Z,0.40
2022-12-05T21:26:15.290Z,0.40
2022-12-05T21:28:42.783Z,0.57
2022-12-05T21:31:12.099Z,0.80
2022-12-05T21:33:40.049Z,0.30
2022-12-05T21:36:07.582Z,0.50
2022-12-05T21:38:34.950Z,0.40
2022-12-05T21:41:03.570Z,0.47
2022-12-05T21:43:31.011Z,0.40
2022-12-05T21:45:58.366Z,0.30
2022-12-05T21:48:25.597Z,0.50
2022-12-05T21:50:52.943Z,0.40
2022-12-05T21:53:20.659Z,0.57
2022-12-05T21:55:48.095Z,0.50
2022-12-05T21:58:15.329Z,0.70
2022-12-05T22:00:43.345Z,0.63
2022-12-05T22:03:13.879Z,0.70
2022-12-05T22:05:41.164Z,0.40
2022-12-05T22:08:08.525Z,0.57
2022-12-05T22:10:35.974Z,0.43
2022-12-05T22:13:03.369Z,0.60
2022-12-05T22:15:30.863Z,0.47
2022-12-05T22:17:58.069Z,0.50
2022-12-05T22:20:25.387Z,0.40
2022-12-05T22:22:52.505Z,0.47
2022-12-05T22:25:19.722Z,0.70
2022-12-05T22:27:46.995Z,0.70
2022-12-05T22:30:14.344Z,0.47
2022-12-05T22:32:41.582Z,0.60
2022-12-05T22:35:09.019Z,0.53
2022-12-05T22:37:36.058Z,0.60
2022-12-05T22:40:03.477Z,0.40
2022-12-05T22:42:30.701Z,0.70
2022-12-05T22:44:57.834Z,0.50
2022-12-05T22:47:25.024Z,0.40
2022-12-05T22:49:52.429Z,0.50
2022-12-05T22:52:19.611Z,0.60
2022-12-05T22:54:46.779Z,0.50
2022-12-05T22:57:14.007Z,0.50
2022-12-05T22:59:41.226Z,0.50
2022-12-05T23:02:08.310Z,0.40
2022-12-05T23:04:35.507Z,0.60
2022-12-05T23:07:02.806Z,0.50
2022-12-05T23:09:29.913Z,0.50
2022-12-05T23:11:57.358Z,0.33
2022-12-05T23:14:24.476Z,0.30
2022-12-05T23:16:51.660Z,0.57
2022-12-05T23:19:18.859Z,0.77
2022-12-05T23:21:46.128Z,0.53
2022-12-05T23:24:13.481Z,0.50
2022-12-05T23:26:42.347Z,0.53
2022-12-05T23:29:09.752Z,0.33
2022-12-05T23:31:37.020Z,0.60
2022-12-05T23:34:04.606Z,0.50
2022-12-05T23:36:32.635Z,0.60
2022-12-05T23:39:00.202Z,0.40
2022-12-05T23:41:27.587Z,0.50
2022-12-05T23:43:54.757Z,0.70
2022-12-05T23:46:23.764Z,0.43
2022-12-05T23:48:51.230Z,0.50
2022-12-05T23:51:20.034Z,0.53
2022-12-05T23:53:47.889Z,0.47
2022-12-05T23:56:17.602Z,0.40
2022-12-05T23:58:44.783Z,0.40
